createdAt,value
2022-10-18T00:00:18.921Z,9.80
2022-10-18T00:02:46.136Z,9.65
2022-10-18T00:05:13.176Z,10.52
2022-10-18T00:07:40.236Z,9.90
2022-10-18T00:10:07.782Z,9.75
2022-10-18T00:12:36.976Z,9.30
2022-10-18T00:15:06.448Z,8.98
2022-10-18T00:17:38.242Z,9.27
2022-10-18T00:20:06.606Z,9.75
2022-10-18T00:22:38.729Z,9.00
2022-10-18T00:25:07.163Z,8.75
2022-10-18T00:27:34.867Z,9.05
2022-10-18T00:30:02.217Z,8.43
2022-10-18T00:32:31.580Z,8.93
2022-10-18T00:34:59.363Z,8.55
2022-10-18T00:37:26.320Z,9.70
2022-10-18T00:42:31.063Z,8.32
2022-10-18T00:45:14.951Z,8.45
2022-10-18T00:47:44.118Z,8.55
2022-10-18T00:50:11.809Z,9.05
2022-10-18T00:52:47.160Z,8.80
2022-10-18T00:55:14.251Z,8.70
2022-10-18T00:57:43.622Z,8.63
2022-10-18T01:00:12.197Z,8.57
2022-10-18T01:02:41.909Z,8.70
2022-10-18T01:05:11.677Z,8.70
2022-10-18T01:07:55.584Z,8.60
2022-10-18T01:10:55.207Z,8.70
2022-10-18T01:13:52.812Z,9.40
2022-10-18T01:16:40.803Z,8.98
2022-10-18T01:19:52.731Z,9.20
2022-10-18T01:22:42.817Z,9.23
2022-10-18T01:25:21.965Z,9.20
2022-10-18T01:28:16.343Z,8.90
2022-10-18T01:31:06.288Z,8.05
2022-10-18T01:33:51.245Z,8.87
2022-10-18T01:36:35.335Z,10.10
2022-10-18T01:39:07.844Z,8.95
2022-10-18T01:41:37.424Z,8.60
2022-10-18T01:44:08.625Z,9.55
2022-10-18T01:46:37.742Z,9.50
2022-10-18T01:49:05.293Z,9.30
2022-10-18T01:51:33.592Z,9.15
2022-10-18T01:54:00.726Z,9.10
2022-10-18T01:56:53.490Z,9.40
2022-10-18T01:59:51.653Z,8.82
2022-10-18T02:02:32.383Z,9.15
2022-10-18T02:05:11.710Z,9.02
2022-10-18T02:08:00.165Z,9.50
2022-10-18T02:10:49.040Z,9.30
2022-10-18T02:13:19.531Z,8.45
2022-10-18T02:16:57.172Z,8.90
2022-10-18T02:19:46.459Z,9.48
2022-10-18T02:22:15.352Z,9.18
2022-10-18T02:24:46.691Z,8.38
2022-10-18T02:27:14.144Z,8.43
2022-10-18T02:29:42.408Z,8.85
2022-10-18T02:32:26.034Z,9.68
2022-10-18T02:35:00.976Z,8.70
2022-10-18T02:37:35.501Z,8.80
2022-10-18T02:40:05.057Z,8.50
2022-10-18T02:42:40.729Z,8.50
2022-10-18T02:45:08.130Z,8.63
2022-10-18T02:47:35.240Z,8.30
2022-10-18T02:50:02.354Z,8.98
2022-10-18T02:52:30.877Z,9.35
2022-10-18T02:54:57.889Z,10.00
2022-10-18T02:57:24.914Z,9.95
2022-10-18T02:59:51.896Z,9.00
2022-10-18T03:02:19.011Z,8.95
2022-10-18T03:04:46.054Z,8.85
2022-10-18T03:07:13.034Z,9.07
2022-10-18T03:09:40.131Z,8.25
2022-10-18T03:12:07.375Z,9.82
2022-10-18T03:14:34.427Z,9.40
2022-10-18T03:17:01.395Z,9.60
2022-10-18T03:19:28.434Z,9.45
2022-10-18T03:21:55.565Z,9.27
2022-10-18T03:24:22.734Z,10.00
2022-10-18T03:26:49.825Z,10.13
2022-10-18T03:29:16.871Z,10.57
2022-10-18T03:31:43.964Z,10.43
2022-10-18T03:34:11.071Z,10.38
2022-10-18T03:36:38.953Z,9.82
2022-10-18T03:39:05.955Z,10.38
2022-10-18T03:41:32.959Z,10.35
2022-10-18T03:43:59.954Z,9.95
2022-10-18T03:46:27.146Z,10.45
2022-10-18T03:48:54.179Z,11.13
2022-10-18T03:51:21.313Z,10.70
2022-10-18T03:53:48.319Z,11.18
2022-10-18T03:56:15.491Z,10.68
2022-10-18T03:58:42.650Z,10.70
2022-10-18T04:01:09.709Z,9.45
2022-10-18T04:03:36.895Z,11.40
2022-10-18T04:06:04.164Z,11.55
2022-10-18T04:08:32.181Z,10.38
2022-10-18T04:10:59.136Z,10.63
2022-10-18T04:13:26.309Z,11.18
2022-10-18T04:15:53.278Z,11.27
2022-10-18T04:18:20.316Z,10.48
2022-10-18T04:20:47.497Z,11.30
2022-10-18T04:23:14.481Z,10.80
2022-10-18T04:25:41.460Z,11.68
2022-10-18T04:28:08.707Z,12.10
2022-10-18T04:30:35.985Z,10.65
2022-10-18T04:33:02.976Z,12.07
2022-10-18T04:35:30.088Z,11.63
2022-10-18T04:37:57.166Z,12.20
2022-10-18T04:40:24.174Z,12.10
2022-10-18T04:42:51.249Z,12.00
2022-10-18T04:45:18.236Z,11.77
2022-10-18T04:47:45.285Z,11.95
2022-10-18T04:50:12.274Z,12.02
2022-10-18T04:52:39.274Z,12.60
2022-10-18T04:55:06.906Z,11.45
2022-10-18T04:57:34.102Z,12.07
2022-10-18T05:00:01.572Z,12.02
2022-10-18T05:02:30.349Z,11.52
2022-10-18T05:04:57.798Z,11.95
2022-10-18T05:07:24.969Z,11.80
2022-10-18T05:09:51.923Z,10.98
2022-10-18T05:12:19.024Z,11.43
2022-10-18T05:14:46.103Z,10.90
2022-10-18T05:17:13.106Z,10.90
2022-10-18T05:19:40.275Z,11.02
2022-10-18T05:22:08.046Z,11.02
2022-10-18T05:24:35.168Z,12.10
2022-10-18T05:27:02.258Z,11.32
2022-10-18T05:29:29.318Z,11.95
2022-10-18T05:31:56.413Z,11.82
2022-10-18T05:34:24.823Z,11.38
2022-10-18T05:36:51.998Z,11.98
2022-10-18T05:39:19.000Z,11.82
2022-10-18T05:41:46.068Z,11.55
2022-10-18T05:44:13.093Z,11.90
2022-10-18T05:46:40.166Z,12.20
2022-10-18T05:49:07.093Z,12.27
2022-10-18T05:51:34.111Z,12.38
2022-10-18T05:54:01.197Z,12.10
2022-10-18T05:56:28.191Z,12.23
2022-10-18T05:58:55.224Z,13.13
2022-10-18T06:01:23.311Z,12.10
2022-10-18T06:03:51.716Z,12.68
2022-10-18T06:06:18.732Z,13.38
2022-10-18T06:08:49.705Z,11.40
2022-10-18T06:11:19.287Z,14.00
2022-10-18T06:13:48.346Z,12.93
2022-10-18T06:16:17.879Z,12.50
2022-10-18T06:18:49.348Z,13.20
2022-10-18T06:21:16.766Z,13.30
2022-10-18T06:23:44.013Z,13.52
2022-10-18T06:26:11.938Z,13.77
2022-10-18T06:28:39.426Z,13.95
2022-10-18T06:31:06.904Z,14.05
2022-10-18T06:33:35.448Z,15.27
2022-10-18T06:36:08.661Z,15.65
2022-10-18T06:38:36.166Z,14.35
2022-10-18T06:41:05.087Z,15.07
2022-10-18T06:43:32.463Z,15.70
2022-10-18T06:46:02.159Z,16.27
2022-10-18T06:48:29.376Z,16.45
2022-10-18T06:50:58.918Z,16.38
2022-10-18T06:53:28.740Z,15.63
2022-10-18T06:56:04.650Z,14.77
2022-10-18T06:58:32.084Z,17.13
2022-10-18T07:00:59.357Z,16.15
2022-10-18T07:03:27.375Z,17.48
2022-10-18T07:05:54.431Z,17.77
2022-10-18T07:08:21.474Z,17.60
2022-10-18T07:10:53.295Z,17.08
2022-10-18T07:13:32.018Z,17.10
2022-10-18T07:16:09.796Z,17.48
2022-10-18T07:18:41.751Z,17.70
2022-10-18T07:21:10.992Z,18.40
2022-10-18T07:23:40.677Z,18.15
2022-10-18T07:26:18.443Z,18.00
2022-10-18T07:28:47.964Z,17.95
2022-10-18T07:31:15.077Z,16.13
2022-10-18T07:33:43.196Z,17.30
2022-10-18T07:36:12.114Z,18.70
2022-10-18T07:38:39.487Z,17.25
2022-10-18T07:41:07.859Z,18.20
2022-10-18T07:43:35.836Z,18.27
2022-10-18T07:46:05.266Z,18.23
2022-10-18T07:48:32.537Z,17.90
2022-10-18T07:51:00.889Z,17.35
2022-10-18T07:53:29.222Z,16.85
2022-10-18T07:56:07.180Z,17.27
2022-10-18T07:58:36.670Z,17.63
2022-10-18T08:01:04.787Z,18.48
2022-10-18T08:03:32.307Z,17.38
2022-10-18T08:05:59.378Z,17.10
2022-10-18T08:08:27.197Z,17.50
2022-10-18T08:10:54.555Z,16.30
2022-10-18T08:13:22.539Z,17.00
2022-10-18T08:15:49.528Z,16.33
2022-10-18T08:18:16.468Z,14.52
2022-10-18T08:20:45.280Z,16.23
2022-10-18T08:23:12.730Z,15.27
2022-10-18T08:25:39.786Z,14.32
2022-10-18T08:28:07.257Z,15.52
2022-10-18T08:30:36.054Z,14.73
2022-10-18T08:33:03.906Z,15.63
2022-10-18T08:35:32.018Z,14.98
2022-10-18T08:37:59.553Z,15.70
2022-10-18T08:40:27.752Z,16.42
2022-10-18T08:43:29.992Z,15.40
2022-10-18T08:45:57.580Z,16.27
2022-10-18T08:48:46.226Z,14.65
2022-10-18T08:51:35.065Z,16.60
2022-10-18T08:54:12.592Z,16.38
2022-10-18T08:56:45.845Z,16.75
2022-10-18T08:59:13.509Z,16.30
2022-10-18T09:02:01.753Z,16.90
2022-10-18T09:04:41.117Z,15.10
2022-10-18T09:07:36.854Z,25.13
2022-10-18T09:10:24.047Z,16.05
2022-10-18T09:13:09.419Z,14.65
2022-10-18T09:15:45.089Z,15.05
2022-10-18T09:18:24.367Z,15.75
2022-10-18T09:20:57.262Z,17.65
2022-10-18T09:23:44.196Z,13.88
2022-10-18T09:26:17.689Z,13.20
2022-10-18T09:29:13.922Z,12.50
2022-10-18T09:32:04.863Z,12.82
2022-10-18T09:34:39.882Z,12.75
2022-10-18T09:37:13.604Z,10.63
2022-10-18T09:39:42.080Z,12.15
2022-10-18T09:42:16.580Z,10.65
2022-10-18T09:44:51.453Z,10.25
2022-10-18T09:47:52.299Z,11.48
2022-10-18T09:50:33.220Z,11.63
2022-10-18T09:53:12.550Z,11.35
2022-10-18T09:55:53.748Z,12.50
2022-10-18T09:58:23.041Z,11.05
2022-10-18T10:00:52.844Z,10.68
2022-10-18T10:03:19.895Z,11.20
2022-10-18T10:05:46.891Z,11.18
2022-10-18T10:08:14.129Z,11.18
2022-10-18T10:10:47.689Z,10.30
2022-10-18T10:13:16.341Z,11.07
2022-10-18T10:15:53.447Z,10.27
2022-10-18T10:18:22.922Z,12.00
2022-10-18T10:21:02.695Z,11.23
2022-10-18T10:23:33.201Z,10.52
2022-10-18T10:26:03.966Z,10.68
2022-10-18T10:31:32.710Z,9.35
2022-10-18T10:34:19.237Z,11.00
2022-10-18T10:36:49.425Z,11.05
2022-10-18T10:39:21.468Z,11.02
2022-10-18T10:41:52.720Z,11.68
2022-10-18T10:44:23.510Z,11.10
2022-10-18T10:52:28.567Z,12.32
2022-10-18T10:57:47.417Z,12.73
2022-10-18T11:00:44.070Z,12.70
2022-10-18T11:03:34.539Z,13.98
2022-10-18T11:06:02.175Z,14.75
2022-10-18T11:08:39.265Z,14.25
2022-10-18T11:11:27.057Z,14.90
2022-10-18T11:16:56.866Z,16.27
2022-10-18T11:19:34.665Z,15.30
2022-10-18T11:22:05.774Z,16.08
2022-10-18T11:24:35.832Z,15.90
2022-10-18T11:27:16.981Z,15.70
2022-10-18T11:30:12.598Z,15.90
2022-10-18T11:33:00.737Z,16.33
2022-10-18T11:35:50.604Z,15.65
2022-10-18T11:38:41.929Z,14.50
2022-10-18T11:41:40.002Z,17.38
2022-10-18T11:44:35.385Z,15.55
2022-10-18T11:47:23.425Z,15.50
2022-10-18T11:50:21.149Z,14.32
2022-10-18T11:53:04.737Z,13.68
2022-10-18T11:55:43.499Z,13.20
2022-10-18T11:58:32.090Z,13.93
2022-10-18T12:01:13.069Z,12.65
2022-10-18T12:03:58.802Z,13.85
2022-10-18T12:06:32.964Z,13.45
2022-10-18T12:09:05.183Z,15.10
2022-10-18T12:11:41.855Z,13.15
2022-10-18T12:14:29.362Z,13.48
2022-10-18T12:17:27.996Z,12.73
2022-10-18T12:19:49.946Z,13.15
2022-10-18T12:22:26.034Z,12.90
2022-10-18T12:24:53.009Z,12.45
2022-10-18T12:30:37.895Z,12.82
2022-10-18T12:33:27.955Z,11.85
2022-10-18T12:38:32.964Z,9.73
2022-10-18T12:41:00.870Z,10.10
2022-10-18T12:43:34.223Z,9.30
2022-10-18T12:46:02.802Z,9.48
2022-10-18T12:48:29.782Z,9.10
2022-10-18T12:51:05.989Z,8.27
2022-10-18T12:53:34.186Z,8.10
2022-10-18T12:56:29.120Z,7.38
2022-10-18T12:59:39.103Z,6.88
2022-10-18T13:02:06.074Z,6.97
2022-10-18T13:04:34.986Z,7.30
2022-10-18T13:07:08.475Z,7.32
2022-10-18T13:09:46.687Z,6.10
2022-10-18T13:12:15.513Z,5.30
2022-10-18T13:15:25.981Z,5.45
2022-10-18T13:18:08.724Z,5.10
2022-10-18T13:20:54.414Z,4.45
2022-10-18T13:23:45.355Z,4.00
2022-10-18T13:26:38.138Z,3.22
2022-10-18T13:29:30.421Z,2.58
2022-10-18T13:32:28.163Z,2.40
2022-10-18T13:34:55.302Z,2.95
2022-10-18T13:37:25.425Z,2.20
2022-10-18T13:40:25.407Z,2.58
2022-10-18T13:42:52.583Z,2.90
2022-10-18T13:45:31.967Z,2.20
2022-10-18T13:48:30.095Z,2.50
2022-10-18T13:51:50.491Z,2.72
2022-10-18T13:54:29.429Z,2.58
2022-10-18T13:57:18.105Z,2.30
2022-10-18T14:00:04.112Z,2.28
2022-10-18T14:03:00.214Z,2.53
2022-10-18T14:06:01.792Z,3.30
2022-10-18T14:09:09.395Z,2.22
2022-10-18T14:12:19.390Z,2.30
2022-10-18T14:14:54.937Z,2.17
2022-10-18T14:17:36.401Z,2.30
2022-10-18T14:20:14.575Z,2.22
2022-10-18T14:22:48.690Z,2.25
2022-10-18T14:25:27.118Z,2.33
2022-10-18T14:28:36.343Z,1.92
2022-10-18T14:31:16.248Z,2.13
2022-10-18T14:33:47.182Z,2.30
2022-10-18T14:36:21.956Z,2.42
2022-10-18T14:38:56.228Z,2.22
2022-10-18T14:41:32.857Z,2.58
2022-10-18T14:44:15.262Z,2.45
2022-10-18T14:47:06.182Z,1.90
2022-10-18T14:49:33.298Z,2.20
2022-10-18T14:52:01.203Z,2.10
2022-10-18T14:54:37.826Z,2.13
2022-10-18T14:57:06.444Z,2.00
2022-10-18T14:59:42.061Z,2.03
2022-10-18T15:02:16.778Z,1.60
2022-10-18T15:04:45.925Z,2.22
2022-10-18T15:07:16.574Z,1.80
2022-10-18T15:12:15.044Z,1.90
2022-10-18T15:14:43.470Z,1.85
2022-10-18T15:17:25.894Z,1.70
2022-10-18T15:20:18.844Z,2.00
2022-10-18T15:22:47.000Z,1.95
2022-10-18T15:25:22.622Z,1.65
2022-10-18T15:27:52.569Z,1.67
2022-10-18T15:30:28.260Z,2.10
2022-10-18T15:32:58.955Z,1.50
2022-10-18T15:38:13.728Z,3.33
2022-10-18T15:40:41.973Z,1.90
2022-10-18T15:43:25.485Z,1.45
2022-10-18T15:46:05.347Z,2.00
2022-10-18T15:48:40.311Z,1.25
2022-10-18T15:51:48.284Z,1.58
2022-10-18T15:54:19.599Z,1.23
2022-10-18T15:56:46.676Z,1.40
2022-10-18T15:59:29.302Z,1.38
2022-10-18T16:01:56.497Z,1.30
2022-10-18T16:04:25.392Z,1.33
2022-10-18T16:06:53.208Z,1.30
2022-10-18T16:09:21.681Z,1.42
2022-10-18T16:11:56.384Z,1.38
2022-10-18T16:14:25.560Z,1.98
2022-10-18T16:17:00.725Z,2.03
2022-10-18T16:19:28.152Z,1.85
2022-10-18T16:21:55.733Z,1.60
2022-10-18T16:24:23.521Z,1.40
2022-10-18T16:26:51.352Z,2.05
2022-10-18T16:29:24.521Z,1.73
2022-10-18T16:31:53.756Z,1.55
2022-10-18T16:34:22.647Z,1.92
2022-10-18T16:36:49.945Z,1.63
2022-10-18T16:39:18.976Z,1.95
2022-10-18T16:41:47.169Z,1.33
2022-10-18T16:44:16.067Z,1.27
2022-10-18T16:46:43.723Z,1.50
2022-10-18T16:49:25.203Z,1.30
2022-10-18T16:51:53.478Z,1.90
2022-10-18T16:54:21.237Z,1.60
2022-10-18T16:56:50.261Z,1.42
2022-10-18T16:59:27.572Z,1.63
2022-10-18T17:01:54.938Z,1.60
2022-10-18T17:04:22.240Z,1.50
2022-10-18T17:06:49.731Z,1.75
2022-10-18T17:09:17.007Z,2.00
2022-10-18T17:11:44.319Z,2.63
2022-10-18T17:14:11.532Z,2.67
2022-10-18T17:16:40.037Z,2.45
2022-10-18T17:19:11.208Z,2.53
2022-10-18T17:21:38.544Z,2.00
2022-10-18T17:24:06.442Z,2.55
2022-10-18T17:26:34.321Z,2.50
2022-10-18T17:29:05.061Z,2.33
2022-10-18T17:34:01.885Z,2.33
2022-10-18T17:36:33.613Z,2.50
2022-10-18T17:39:01.831Z,2.33
2022-10-18T17:41:30.588Z,2.42
2022-10-18T17:43:57.971Z,2.40
2022-10-18T17:46:25.216Z,1.95
2022-10-18T17:48:53.250Z,2.00
2022-10-18T17:51:20.341Z,1.70
2022-10-18T17:53:47.488Z,1.80
2022-10-18T17:56:15.631Z,1.73
2022-10-18T17:58:47.182Z,1.70
2022-10-18T18:01:17.532Z,1.73
2022-10-18T18:03:45.346Z,1.88
2022-10-18T18:06:16.576Z,1.77
2022-10-18T18:08:44.209Z,2.90
2022-10-18T18:11:11.784Z,1.58
2022-10-18T18:13:40.267Z,1.63
2022-10-18T18:16:12.380Z,1.55
2022-10-18T18:18:39.487Z,1.20
2022-10-18T18:21:06.587Z,1.70
2022-10-18T18:23:33.744Z,1.40
2022-10-18T18:26:00.971Z,1.70
2022-10-18T18:28:28.183Z,1.73
2022-10-18T18:30:55.334Z,1.55
2022-10-18T18:33:22.476Z,1.70
2022-10-18T18:35:58.630Z,1.70
2022-10-18T18:38:26.525Z,1.70
2022-10-18T18:41:18.204Z,1.52
2022-10-18T18:43:52.150Z,1.50
2022-10-18T18:46:19.857Z,1.67
2022-10-18T18:48:47.102Z,2.00
2022-10-18T18:51:20.320Z,1.60
2022-10-18T18:53:48.872Z,2.00
2022-10-18T18:58:47.209Z,1.80
2022-10-18T19:01:22.628Z,1.90
2022-10-18T19:03:51.668Z,1.80
2022-10-18T19:06:40.358Z,4.43
2022-10-18T19:09:22.452Z,2.30
2022-10-18T19:11:53.060Z,1.85
2022-10-18T19:17:01.196Z,2.03
2022-10-18T19:19:30.518Z,2.42
2022-10-18T19:22:00.364Z,2.20
2022-10-18T19:24:30.310Z,2.13
2022-10-18T19:27:01.574Z,2.58
2022-10-18T19:29:32.849Z,2.78
2022-10-18T19:32:02.765Z,2.30
2022-10-18T19:34:31.570Z,2.47
2022-10-18T19:36:58.762Z,1.90
2022-10-18T19:39:31.857Z,2.00
2022-10-18T19:42:00.539Z,2.30
2022-10-18T19:44:30.919Z,2.10
2022-10-18T19:46:58.660Z,2.08
2022-10-18T19:49:26.286Z,1.70
2022-10-18T19:51:53.408Z,1.95
2022-10-18T19:54:21.154Z,1.88
2022-10-18T19:56:48.373Z,2.03
2022-10-18T19:59:16.751Z,1.75
2022-10-18T20:01:44.806Z,1.90
2022-10-18T20:04:12.945Z,1.70
2022-10-18T20:06:40.972Z,2.10
2022-10-18T20:09:12.364Z,2.70
2022-10-18T20:11:42.232Z,2.30
2022-10-18T20:14:12.372Z,2.45
2022-10-18T20:16:39.488Z,2.45
2022-10-18T20:19:07.770Z,2.13
2022-10-18T20:21:36.131Z,2.10
2022-10-18T20:24:05.073Z,2.45
2022-10-18T20:26:32.729Z,2.00
2022-10-18T20:29:00.376Z,2.20
2022-10-18T20:31:30.507Z,2.60
2022-10-18T20:34:00.201Z,2.03
2022-10-18T20:36:29.047Z,2.30
2022-10-18T20:38:56.378Z,2.25
2022-10-18T20:41:31.955Z,2.30
2022-10-18T20:44:05.385Z,2.60
2022-10-18T20:46:35.394Z,2.30
2022-10-18T20:49:03.489Z,2.60
2022-10-18T20:51:31.068Z,2.35
2022-10-18T20:53:59.341Z,2.45
2022-10-18T20:56:27.375Z,3.20
2022-10-18T20:58:56.936Z,2.60
2022-10-18T21:01:28.876Z,2.75
2022-10-18T21:03:57.740Z,3.05
2022-10-18T21:06:26.339Z,2.70
2022-10-18T21:08:59.024Z,2.33
2022-10-18T21:11:27.833Z,2.67
2022-10-18T21:13:59.164Z,2.80
2022-10-18T21:16:27.286Z,3.38
2022-10-18T21:18:55.141Z,2.85
2022-10-18T21:21:25.669Z,3.10
2022-10-18T21:23:53.722Z,3.28
2022-10-18T21:26:25.795Z,3.05
2022-10-18T21:28:54.777Z,2.67
2022-10-18T21:31:24.176Z,2.83
2022-10-18T21:33:59.737Z,3.30
2022-10-18T21:36:30.326Z,3.28
2022-10-18T21:38:57.451Z,3.38
2022-10-18T21:41:25.171Z,2.70
2022-10-18T21:43:54.432Z,3.08
2022-10-18T21:46:23.315Z,2.90
2022-10-18T21:48:52.299Z,2.75
2022-10-18T21:51:21.081Z,2.58
2022-10-18T21:53:50.679Z,2.53
2022-10-18T21:56:26.668Z,2.15
2022-10-18T21:58:54.562Z,2.33
2022-10-18T22:01:28.054Z,2.38
2022-10-18T22:03:56.881Z,2.25
2022-10-18T22:06:25.395Z,2.53
2022-10-18T22:08:57.513Z,2.25
2022-10-18T22:11:31.585Z,2.33
2022-10-18T22:13:59.390Z,2.20
2022-10-18T22:16:26.977Z,2.20
2022-10-18T22:18:58.111Z,2.20
2022-10-18T22:21:25.321Z,2.33
2022-10-18T22:23:54.862Z,2.15
2022-10-18T22:26:30.833Z,2.30
2022-10-18T22:29:04.420Z,2.35
2022-10-18T22:31:34.455Z,2.00
2022-10-18T22:34:04.481Z,2.00
2022-10-18T22:36:32.815Z,1.97
2022-10-18T22:39:00.428Z,1.92
2022-10-18T22:41:27.495Z,1.88
2022-10-18T22:43:56.392Z,1.60
2022-10-18T22:46:26.343Z,2.08
2022-10-18T22:48:53.422Z,1.70
2022-10-18T22:51:20.846Z,2.00
2022-10-18T22:53:47.963Z,1.95
2022-10-18T22:56:21.634Z,1.92
2022-10-18T22:58:49.590Z,1.70
2022-10-18T23:01:20.487Z,1.70
2022-10-18T23:03:52.065Z,2.20
2022-10-18T23:06:28.445Z,1.80
2022-10-18T23:08:57.449Z,1.70
2022-10-18T23:11:26.027Z,2.20
2022-10-18T23:13:53.670Z,1.70
2022-10-18T23:16:21.415Z,2.13
2022-10-18T23:18:53.302Z,1.95
2022-10-18T23:21:21.177Z,1.85
2022-10-18T23:23:48.283Z,2.10
2022-10-18T23:26:17.979Z,2.05
2022-10-18T23:28:48.153Z,2.10
2022-10-18T23:31:18.275Z,1.92
2022-10-18T23:33:47.538Z,1.77
2022-10-18T23:36:15.044Z,2.03
2022-10-18T23:38:42.940Z,2.00
2022-10-18T23:41:11.959Z,2.05
2022-10-18T23:43:39.740Z,2.05
2022-10-18T23:46:07.404Z,1.95
2022-10-18T23:48:34.537Z,1.55
2022-10-18T23:51:02.663Z,2.15
2022-10-18T23:53:29.915Z,1.95
2022-10-18T23:55:59.306Z,2.10
2022-10-18T23:58:27.470Z,2.20
